CSN669 UTIC-UHMG

Flight info

Callsign CSN669
Flight time N/A
Altitude 6000
Route UMURI
Aircraft C208/L-SDFGR/C

Departure

Time N/A
Airport UTIC

Arrival

Time 2026-05-07 04:02
Airport Chaybukha Airport (UHMG)
Time Latitude Longitude Altitude Speed Heading
2026-05-07 02:59 62.48444 165.33744 88 ft 0 kts 111°
2026-05-07 03:00 62.48399 165.33812 91 ft 21 kts 142°
2026-05-07 03:00 62.48338 165.33800 88 ft 3 kts 22°
2026-05-07 03:01 62.48402 165.33819 91 ft 28 kts
2026-05-07 03:01 62.48758 165.33920 94 ft 75 kts 11°
2026-05-07 03:01 62.49311 165.33991 288 ft 83 kts
2026-05-07 03:01 62.49903 165.33903 575 ft 87 kts 359°
2026-05-07 03:02 62.50467 165.33343 875 ft 93 kts 326°
2026-05-07 03:02 62.50639 165.32047 1180 ft 95 kts 240°
2026-05-07 03:02 62.50395 165.30717 1494 ft 96 kts 248°
2026-05-07 03:02 62.50055 165.29551 1783 ft 88 kts 213°
2026-05-07 03:03 62.49568 165.28882 2056 ft 81 kts 200°
2026-05-07 03:03 62.49107 165.28248 2312 ft 77 kts 197°
2026-05-07 03:03 62.48607 165.27595 2555 ft 87 kts 199°
2026-05-07 03:03 62.48037 165.26881 2847 ft 100 kts 200°
2026-05-07 03:04 62.47432 165.26139 3110 ft 101 kts 200°
2026-05-07 03:04 62.46782 165.25727 3378 ft 97 kts 178°
2026-05-07 03:04 62.46115 165.25240 3611 ft 109 kts 206°
2026-05-07 03:04 62.45620 165.23908 3860 ft 116 kts 225°
2026-05-07 03:05 62.45147 165.22515 4109 ft 115 kts 225°
2026-05-07 03:05 62.44675 165.21056 4333 ft 123 kts 226°
2026-05-07 03:05 62.44179 165.19475 4573 ft 131 kts 227°
2026-05-07 03:05 62.43658 165.17795 4826 ft 136 kts 228°
2026-05-07 03:06 62.43131 165.16079 5069 ft 140 kts 227°
2026-05-07 03:06 62.42584 165.14308 5317 ft 143 kts 227°
2026-05-07 03:06 62.42023 165.12491 5566 ft 145 kts 227°
2026-05-07 03:06 62.41459 165.10664 5811 ft 147 kts 227°
2026-05-07 03:07 62.40893 165.08841 5991 ft 152 kts 226°
2026-05-07 03:07 62.40277 165.06864 6009 ft 165 kts 227°
2026-05-07 03:07 62.39629 165.04767 6007 ft 173 kts 228°
2026-05-07 03:07 62.38951 165.02573 6003 ft 177 kts 228°
2026-05-07 03:08 62.38259 165.00343 6005 ft 179 kts 228°
2026-05-07 03:08 62.37559 164.98086 5997 ft 181 kts 229°
2026-05-07 03:08 62.36860 164.95839 6000 ft 184 kts 228°
2026-05-07 03:08 62.36144 164.93545 5996 ft 184 kts 228°
2026-05-07 03:09 62.35428 164.91249 5994 ft 183 kts 228°
2026-05-07 03:09 62.34725 164.88995 5995 ft 183 kts 228°
2026-05-07 03:09 62.34013 164.86719 5996 ft 183 kts 228°
2026-05-07 03:09 62.33303 164.84451 5994 ft 183 kts 228°
2026-05-07 03:10 62.32592 164.82179 6000 ft 183 kts 228°
2026-05-07 03:10 62.31884 164.79927 5992 ft 184 kts 228°
2026-05-07 03:10 62.31175 164.77665 5994 ft 184 kts 229°
2026-05-07 03:10 62.30451 164.75360 5995 ft 184 kts 229°
2026-05-07 03:11 62.29735 164.73081 5993 ft 184 kts 229°
2026-05-07 03:11 62.29184 164.70552 5984 ft 193 kts 252°
2026-05-07 03:11 62.28952 164.67712 5983 ft 192 kts 253°
2026-05-07 03:11 62.28686 164.64931 5988 ft 192 kts 252°
2026-05-07 03:12 62.28414 164.62123 5987 ft 192 kts 252°
2026-05-07 03:12 62.28148 164.59301 5989 ft 192 kts 252°
2026-05-07 03:12 62.27884 164.56490 5985 ft 192 kts 252°
2026-05-07 03:12 62.27614 164.53664 5989 ft 193 kts 252°
2026-05-07 03:13 62.27350 164.50861 5991 ft 193 kts 252°
2026-05-07 03:13 62.27083 164.48041 5987 ft 193 kts 252°
2026-05-07 03:13 62.26813 164.45219 5986 ft 192 kts 252°
2026-05-07 03:13 62.26542 164.42394 5984 ft 192 kts 252°
2026-05-07 03:14 62.26275 164.39613 5986 ft 192 kts 252°
2026-05-07 03:14 62.26005 164.36804 5986 ft 192 kts 252°
2026-05-07 03:14 62.25465 164.31205 5983 ft 191 kts 252°
2026-05-07 03:15 62.25199 164.28442 5985 ft 190 kts 252°
2026-05-07 03:15 62.24927 164.25647 5984 ft 191 kts 252°
2026-05-07 03:15 62.24653 164.22830 5982 ft 192 kts 252°
2026-05-07 03:15 62.24385 164.20068 5981 ft 191 kts 252°
2026-05-07 03:16 62.24113 164.17280 5981 ft 191 kts 252°
2026-05-07 03:16 62.23839 164.14489 5980 ft 190 kts 252°
2026-05-07 03:16 62.23570 164.11729 5986 ft 187 kts 252°
2026-05-07 03:16 62.23298 164.08975 5985 ft 189 kts 252°
2026-05-07 03:17 62.23025 164.06216 5990 ft 190 kts 253°
2026-05-07 03:17 62.22753 164.03448 5991 ft 190 kts 252°
2026-05-07 03:17 62.22479 164.00675 5990 ft 190 kts 252°
2026-05-07 03:17 62.22209 163.97947 5990 ft 190 kts 252°
2026-05-07 03:18 62.21932 163.95164 5989 ft 190 kts 252°
2026-05-07 03:18 62.21655 163.92390 5993 ft 190 kts 252°
2026-05-07 03:18 62.21378 163.89609 5990 ft 190 kts 253°
2026-05-07 03:18 62.21101 163.86840 5991 ft 190 kts 253°
2026-05-07 03:19 62.20825 163.84076 5993 ft 190 kts 253°
2026-05-07 03:19 62.20641 163.82236 5990 ft 190 kts 253°
2026-05-07 03:19 62.20271 163.78578 5988 ft 189 kts 252°
2026-05-07 03:19 62.19993 163.75814 5992 ft 189 kts 253°
2026-05-07 03:20 62.19718 163.73080 5990 ft 189 kts 253°
2026-05-07 03:20 62.19439 163.70320 5991 ft 189 kts 253°
2026-05-07 03:20 62.19146 163.67573 5992 ft 188 kts 249°
2026-05-07 03:20 62.18863 163.65833 5992 ft 187 kts 243°
2026-05-07 03:21 62.18233 163.62360 5992 ft 187 kts 243°
2026-05-07 03:21 62.17922 163.60644 5992 ft 187 kts 243°
2026-05-07 03:21 62.17291 163.57176 5997 ft 187 kts 243°
2026-05-07 03:21 62.16820 163.54592 5996 ft 187 kts 243°
2026-05-07 03:22 62.16507 163.52873 5996 ft 186 kts 243°
2026-05-07 03:22 62.16034 163.50272 5996 ft 186 kts 243°
2026-05-07 03:22 62.15411 163.46853 5989 ft 186 kts 243°
2026-05-07 03:22 62.15151 163.45059 5983 ft 189 kts 252°
2026-05-07 03:23 62.14925 163.42284 5984 ft 190 kts 256°
2026-05-07 03:23 62.14715 163.39475 5983 ft 191 kts 256°
2026-05-07 03:23 62.14504 163.36670 5983 ft 191 kts 256°
2026-05-07 03:23 62.14294 163.33904 5982 ft 190 kts 256°
2026-05-07 03:24 62.14082 163.31097 5983 ft 191 kts 256°
2026-05-07 03:24 62.13869 163.28302 5986 ft 191 kts 256°
2026-05-07 03:24 62.13658 163.25492 5986 ft 191 kts 256°
2026-05-07 03:24 62.13447 163.22688 5985 ft 190 kts 256°
2026-05-07 03:25 62.13224 163.19903 5981 ft 189 kts 252°
2026-05-07 03:25 62.12848 163.17240 5982 ft 187 kts 246°
2026-05-07 03:25 62.12441 163.14629 5980 ft 187 kts 246°
2026-05-07 03:25 62.12027 163.11987 5982 ft 187 kts 246°
2026-05-07 03:26 62.11610 163.09325 5984 ft 189 kts 246°
2026-05-07 03:26 62.11197 163.06680 5982 ft 189 kts 246°
2026-05-07 03:26 62.10780 163.04014 5982 ft 189 kts 246°
2026-05-07 03:26 62.10359 163.01334 5983 ft 189 kts 246°
2026-05-07 03:27 62.09941 162.98673 5982 ft 189 kts 246°
2026-05-07 03:27 62.09523 162.96003 5981 ft 189 kts 246°
2026-05-07 03:27 62.09104 162.93324 5981 ft 190 kts 246°
2026-05-07 03:27 62.08692 162.90685 5979 ft 190 kts 246°
2026-05-07 03:28 62.08271 162.88004 5986 ft 191 kts 246°
2026-05-07 03:28 62.07847 162.85306 5989 ft 192 kts 246°
2026-05-07 03:28 62.07424 162.82625 5979 ft 189 kts 246°
2026-05-07 03:28 62.07004 162.79965 5980 ft 188 kts 245°
2026-05-07 03:29 62.06584 162.77295 5983 ft 188 kts 245°
2026-05-07 03:29 62.06170 162.74651 5989 ft 189 kts 246°
2026-05-07 03:29 62.05757 162.71976 5984 ft 189 kts 246°
2026-05-07 03:29 62.05343 162.69305 5981 ft 190 kts 246°
2026-05-07 03:30 62.04929 162.66638 5984 ft 189 kts 246°
2026-05-07 03:30 62.04519 162.64007 5973 ft 188 kts 246°
2026-05-07 03:30 62.04106 162.61377 5979 ft 187 kts 246°
2026-05-07 03:30 62.03701 162.58751 5981 ft 186 kts 245°
2026-05-07 03:31 62.03293 162.56131 5984 ft 187 kts 245°
2026-05-07 03:31 62.02882 162.53484 5980 ft 187 kts 245°
2026-05-07 03:31 62.02480 162.50887 5988 ft 186 kts 245°
2026-05-07 03:31 62.02077 162.48239 5982 ft 188 kts 245°
2026-05-07 03:32 62.01674 162.45586 5981 ft 189 kts 246°
2026-05-07 03:32 62.01268 162.42911 5990 ft 190 kts 245°
2026-05-07 03:32 62.00855 162.40216 5997 ft 192 kts 246°
2026-05-07 03:32 62.00436 162.37486 5975 ft 192 kts 246°
2026-05-07 03:33 62.00029 162.34815 5985 ft 191 kts 245°
2026-05-07 03:33 61.99615 162.32102 5981 ft 193 kts 245°
2026-05-07 03:33 61.99200 162.29385 5988 ft 194 kts 246°
2026-05-07 03:33 61.98781 162.26648 5985 ft 195 kts 245°
2026-05-07 03:34 61.98362 162.23903 5987 ft 194 kts 246°
2026-05-07 03:34 61.97948 162.21183 5978 ft 192 kts 245°
2026-05-07 03:34 61.97542 162.18508 5980 ft 192 kts 245°
2026-05-07 03:34 61.97136 162.15816 5978 ft 191 kts 245°
2026-05-07 03:35 61.96731 162.13120 5983 ft 191 kts 245°
2026-05-07 03:35 61.96327 162.10434 5977 ft 191 kts 245°
2026-05-07 03:35 61.95923 162.07741 5975 ft 190 kts 245°
2026-05-07 03:35 61.95519 162.05053 5976 ft 190 kts 245°
2026-05-07 03:36 61.95116 162.02370 5981 ft 190 kts 245°
2026-05-07 03:36 61.94712 161.99680 5983 ft 191 kts 245°
2026-05-07 03:36 61.94310 161.97015 5980 ft 191 kts 245°
2026-05-07 03:36 61.93904 161.94325 5985 ft 192 kts 245°
2026-05-07 03:37 61.93495 161.91617 5984 ft 191 kts 245°
2026-05-07 03:37 61.93087 161.88917 5977 ft 191 kts 245°
2026-05-07 03:37 61.92677 161.86214 5983 ft 192 kts 245°
2026-05-07 03:37 61.92271 161.83514 5980 ft 192 kts 245°
2026-05-07 03:38 61.91873 161.80846 5978 ft 191 kts 245°
2026-05-07 03:38 61.91472 161.78158 5984 ft 191 kts 245°
2026-05-07 03:38 61.91071 161.75471 5981 ft 191 kts 245°
2026-05-07 03:38 61.90668 161.72778 5980 ft 191 kts 245°
2026-05-07 03:39 61.90263 161.70073 5978 ft 193 kts 245°
2026-05-07 03:39 61.89855 161.67356 5984 ft 191 kts 245°
2026-05-07 03:39 61.89453 161.64690 5978 ft 191 kts 245°
2026-05-07 03:39 61.89043 161.61987 5983 ft 191 kts 245°
2026-05-07 03:40 61.88636 161.59292 5976 ft 192 kts 245°
2026-05-07 03:40 61.88231 161.56607 5983 ft 191 kts 245°
2026-05-07 03:40 61.87823 161.53916 5977 ft 191 kts 245°
2026-05-07 03:40 61.87415 161.51209 5974 ft 192 kts 245°
2026-05-07 03:41 61.87008 161.48499 5976 ft 193 kts 245°
2026-05-07 03:41 61.86600 161.45781 5970 ft 193 kts 245°
2026-05-07 03:41 61.86195 161.43077 5974 ft 193 kts 245°
2026-05-07 03:41 61.85787 161.40343 5957 ft 195 kts 245°
2026-05-07 03:42 61.85379 161.37626 5962 ft 193 kts 245°
2026-05-07 03:42 61.84969 161.34923 5966 ft 196 kts 245°
2026-05-07 03:42 61.84548 161.32148 5956 ft 197 kts 245°
2026-05-07 03:42 61.84137 161.29427 5976 ft 191 kts 245°
2026-05-07 03:43 61.83726 161.26754 5953 ft 189 kts 245°
2026-05-07 03:43 61.83313 161.24105 5951 ft 189 kts 245°
2026-05-07 03:43 61.82906 161.21482 5953 ft 187 kts 244°
2026-05-07 03:43 61.82501 161.18829 5961 ft 192 kts 245°
2026-05-07 03:44 61.82090 161.16150 5950 ft 193 kts 245°
2026-05-07 03:44 61.81678 161.13441 5951 ft 192 kts 245°
2026-05-07 03:44 61.81266 161.10725 5949 ft 192 kts 245°
2026-05-07 03:44 61.80864 161.08073 5944 ft 191 kts 245°
2026-05-07 03:45 61.80457 161.05399 5932 ft 189 kts 245°
2026-05-07 03:45 61.80059 161.02771 5923 ft 188 kts 245°
2026-05-07 03:45 61.79671 161.00177 5945 ft 182 kts 245°
2026-05-07 03:45 61.79287 160.97579 5939 ft 186 kts 245°
2026-05-07 03:46 61.78904 160.94969 5949 ft 186 kts 245°
2026-05-07 03:46 61.78503 160.92325 5945 ft 188 kts 245°
2026-05-07 03:46 61.78105 160.89716 5941 ft 190 kts 245°
2026-05-07 03:46 61.77701 160.87070 5938 ft 187 kts 245°
2026-05-07 03:47 61.77300 160.84442 5903 ft 190 kts 245°
2026-05-07 03:47 61.76888 160.81763 5644 ft 193 kts 245°
2026-05-07 03:47 61.76470 160.79046 5372 ft 195 kts 245°
2026-05-07 03:47 61.76108 160.76268 5116 ft 198 kts 252°
2026-05-07 03:48 61.75853 160.73445 4861 ft 198 kts 253°
2026-05-07 03:48 61.75600 160.70571 4597 ft 199 kts 253°
2026-05-07 03:48 61.75357 160.67765 4312 ft 182 kts 253°
2026-05-07 03:48 61.75147 160.65267 4023 ft 166 kts 253°
2026-05-07 03:49 61.74943 160.62954 3811 ft 155 kts 253°
2026-05-07 03:49 61.74743 160.60751 3603 ft 149 kts 253°
2026-05-07 03:49 61.74542 160.58623 3404 ft 146 kts 253°
2026-05-07 03:49 61.74331 160.56542 3209 ft 144 kts 253°
2026-05-07 03:50 61.74121 160.54519 3014 ft 142 kts 253°
2026-05-07 03:50 61.73907 160.52481 2823 ft 142 kts 253°
2026-05-07 03:50 61.73701 160.50451 2673 ft 138 kts 253°
2026-05-07 03:50 61.73502 160.48490 2566 ft 135 kts 253°
2026-05-07 03:51 61.73304 160.46546 2456 ft 134 kts 253°
2026-05-07 03:51 61.73107 160.44663 2342 ft 132 kts 253°
2026-05-07 03:51 61.72897 160.42765 2223 ft 133 kts 253°
2026-05-07 03:51 61.72679 160.40857 2121 ft 133 kts 252°
2026-05-07 03:52 61.72464 160.38970 2013 ft 134 kts 253°
2026-05-07 03:52 61.72243 160.37070 1905 ft 132 kts 253°
2026-05-07 03:52 61.72022 160.35189 1795 ft 131 kts 253°
2026-05-07 03:52 61.71869 160.33945 1715 ft 132 kts 253°
2026-05-07 03:53 61.71534 160.31480 1554 ft 129 kts 252°
2026-05-07 03:53 61.71394 160.30253 1474 ft 130 kts 262°
2026-05-07 03:53 61.71675 160.27890 1316 ft 123 kts 312°
2026-05-07 03:53 61.72047 160.27007 1238 ft 120 kts 325°
2026-05-07 03:54 61.72705 160.25986 1132 ft 115 kts 331°
2026-05-07 03:54 61.73348 160.25099 1122 ft 106 kts 340°
2026-05-07 03:54 61.74000 160.25055 1106 ft 88 kts 39°
2026-05-07 03:54 61.74338 160.26024 1115 ft 81 kts 57°
2026-05-07 03:55 61.74590 160.27077 1109 ft 79 kts 64°
2026-05-07 03:55 61.74869 160.28056 1115 ft 76 kts 57°
2026-05-07 03:55 61.75162 160.28984 1114 ft 76 kts 53°
2026-05-07 03:55 61.75510 160.29925 1144 ft 91 kts 53°
2026-05-07 03:56 61.75930 160.31095 1143 ft 108 kts 53°
2026-05-07 03:56 61.76412 160.32445 1142 ft 119 kts 53°
2026-05-07 03:56 61.76906 160.33887 1133 ft 125 kts 56°
2026-05-07 03:56 61.77387 160.35449 1138 ft 128 kts 57°
2026-05-07 03:57 61.77876 160.37037 1138 ft 129 kts 57°
2026-05-07 03:57 61.78367 160.38632 1136 ft 129 kts 57°
2026-05-07 03:57 61.78857 160.40218 1137 ft 129 kts 57°
2026-05-07 03:57 61.79348 160.41812 989 ft 122 kts 57°
2026-05-07 03:58 61.79747 160.43167 852 ft 98 kts 57°
2026-05-07 03:58 61.80083 160.44259 740 ft 82 kts 53°
2026-05-07 03:58 61.80384 160.45219 630 ft 75 kts 54°
2026-05-07 03:58 61.80663 160.46129 534 ft 69 kts 46°
2026-05-07 03:59 61.80945 160.46877 464 ft 64 kts 46°
2026-05-07 03:59 61.81206 160.47616 394 ft 61 kts 47°
2026-05-07 03:59 61.81444 160.48360 354 ft 61 kts 48°
2026-05-07 03:59 61.81691 160.49116 328 ft 63 kts 56°
2026-05-07 04:00 61.81937 160.49879 320 ft 63 kts 52°
2026-05-07 04:00 61.82194 160.50639 322 ft 62 kts 46°
2026-05-07 04:00 61.82442 160.51405 328 ft 63 kts 50°
2026-05-07 04:00 61.82701 160.52213 302 ft 68 kts 52°
2026-05-07 04:01 61.82981 160.53075 259 ft 71 kts 51°
2026-05-07 04:01 61.83249 160.53915 234 ft 66 kts 52°
2026-05-07 04:01 61.83490 160.54682 228 ft 60 kts 54°
2026-05-07 04:01 61.83729 160.55412 233 ft 58 kts 53°
2026-05-07 04:02 61.83931 160.56046 233 ft 44 kts 56°
2026-05-07 04:02 61.83982 160.56024 241 ft 16 kts 258°
2026-05-07 04:02 61.83929 160.55732 234 ft 26 kts 242°
2026-05-07 04:02 61.83834 160.55350 234 ft 28 kts 247°
2026-05-07 04:03 61.83772 160.55077 234 ft 11 kts 240°
2026-05-07 04:03 61.83721 160.54861 229 ft 22 kts 246°
2026-05-07 04:03 61.83662 160.54516 230 ft 24 kts 254°
2026-05-07 04:03 61.83571 160.54191 224 ft 22 kts 233°
2026-05-07 04:04 61.83533 160.54076 224 ft 9 kts 235°
2026-05-07 04:04 61.83495 160.53945 223 ft 12 kts 247°
2026-05-07 04:04 61.83464 160.53772 229 ft 13 kts 250°
2026-05-07 04:04 61.83434 160.53572 229 ft 15 kts 250°
2026-05-07 04:05 61.83403 160.53472 222 ft 4 kts 191°
2026-05-07 04:05 61.83389 160.53479 227 ft 2 kts 144°
2026-05-07 04:05 61.83385 160.53485 220 ft 1 kts 143°
2026-05-07 04:05 61.83378 160.53496 223 ft 0 kts 144°